Flugplatz Tököl reptér (LHTL)

Hier findest Du alle Informationen zum Flugplatz Tököl reptér (LHTL).

Informationen für Piloten zum Flugplatz Tököl reptér

Hier findest Du alle relevanten Informationen, die Du als Pilot benötigst, um Tököl reptér anzufliegen.

Flugplatz: Tököl reptér ICAO-Code: LHTL
Frequenz Turm: 127,55 Mhz GAFOR Gebiet: -
Frequenz Ground: 127,55 Mhz Mogas: nein
Platzrunde: SW 1700 ft Landegebühr: 5 €
Platzhöhe: 328 ft Sunrise: 02:46 Uhr UTC
Pisten: 14/32 - 2000 m x 60 m, Sunset: 18:46 Uhr UTC

Mitglieder, die in Tököl reptér fliegen

Flugwetter am Flugplatz Tököl reptér

Die METAR Information stammen aus EDDM (547.70 km entfernt).

METAR Code:
2024/06/18 18:50
EDDM 181850Z AUTO 11003KT CAVOK 24/17 Q1013 NOSIG

Flugschulen am Flugplatz Tököl reptér

Am Flugplatz Tököl reptér gibt es leider keine Flugschule.

Benachbarte Flugplätze und Flugschulen

Es gibt 2 weitere Flugplätze in einem Umkreis von 50 km um den Flugplatz Tököl reptér.

Jetzt anmelden

Passwort vergessen

Umfrage Archiv

Wie häufig haltet Ihr die Halbkreisflugregel ein?

Eher häufig!
36 %
Immer!
30.7 %
Hin und wieder!
16.7 %
Nie!
9.5 %
Eher selten!
7.2 %
Stimmen: 264 | Diskussion
Anzeige: Roland Aircraft
Statistik Alle Mitglieder

Aktuell sind 41 Besucher online, davon 4 Mitglieder und 37 Gäste.


Mitglieder online:
carstendirks  JoergMe  Heli  b3nn0 

Anzeige: EasyVFR